sensor_id;sensor_type;location;lat;lon;timestamp;pressure;altitude;pressure_sealevel;temperature;humidity
45078;BME280;60508;42.622;25.416;2023-04-25T00:00:33;96117.88;;;13.78;78.82
45078;BME280;60508;42.622;25.416;2023-04-25T00:02:59;96112.16;;;13.84;78.42
45078;BME280;60508;42.622;25.416;2023-04-25T00:05:28;96108.91;;;13.87;78.83
45078;BME280;60508;42.622;25.416;2023-04-25T00:07:55;96112.72;;;13.81;79.69
45078;BME280;60508;42.622;25.416;2023-04-25T00:10:22;96114.16;;;13.68;79.83
45078;BME280;60508;42.622;25.416;2023-04-25T00:12:48;96093.69;;;13.57;79.66
45078;BME280;60508;42.622;25.416;2023-04-25T00:15:14;96086.75;;;13.46;80.90
45078;BME280;60508;42.622;25.416;2023-04-25T00:17:42;96072.31;;;13.11;82.10
45078;BME280;60508;42.622;25.416;2023-04-25T00:20:10;96079.13;;;12.93;84.55
45078;BME280;60508;42.622;25.416;2023-04-25T00:22:36;96066.47;;;12.93;85.41
45078;BME280;60508;42.622;25.416;2023-04-25T00:25:06;96057.56;;;12.93;86.15
45078;BME280;60508;42.622;25.416;2023-04-25T00:27:33;96054.31;;;13.01;86.58
45078;BME280;60508;42.622;25.416;2023-04-25T00:29:59;96055.50;;;13.35;85.49
45078;BME280;60508;42.622;25.416;2023-04-25T00:32:25;96050.28;;;13.54;83.33
45078;BME280;60508;42.622;25.416;2023-04-25T00:34:52;96039.97;;;13.61;82.02
45078;BME280;60508;42.622;25.416;2023-04-25T00:37:18;96031.91;;;13.56;81.70
45078;BME280;60508;42.622;25.416;2023-04-25T00:39:44;96017.56;;;13.15;83.87
45078;BME280;60508;42.622;25.416;2023-04-25T00:42:10;96011.09;;;13.17;84.86
45078;BME280;60508;42.622;25.416;2023-04-25T00:44:39;96005.63;;;13.27;84.09
45078;BME280;60508;42.622;25.416;2023-04-25T00:47:05;96002.31;;;12.85;86.04
45078;BME280;60508;42.622;25.416;2023-04-25T00:49:32;95997.72;;;12.91;85.40
45078;BME280;60508;42.622;25.416;2023-04-25T00:51:58;95997.88;;;13.15;85.47
45078;BME280;60508;42.622;25.416;2023-04-25T00:54:26;95995.53;;;13.03;82.69
45078;BME280;60508;42.622;25.416;2023-04-25T00:56:52;96001.34;;;12.66;84.96
45078;BME280;60508;42.622;25.416;2023-04-25T00:59:19;96002.81;;;12.97;84.04
45078;BME280;60508;42.622;25.416;2023-04-25T01:01:46;96000.97;;;12.88;83.29
45078;BME280;60508;42.622;25.416;2023-04-25T01:04:13;95995.03;;;12.91;82.21
45078;BME280;60508;42.622;25.416;2023-04-25T01:06:39;95986.81;;;13.17;80.06
45078;BME280;60508;42.622;25.416;2023-04-25T01:09:06;95993.41;;;13.40;79.65
45078;BME280;60508;42.622;25.416;2023-04-25T01:11:32;95991.50;;;13.45;79.40
45078;BME280;60508;42.622;25.416;2023-04-25T01:13:58;95976.59;;;13.53;78.80
45078;BME280;60508;42.622;25.416;2023-04-25T01:16:24;96004.81;;;13.71;78.90
45078;BME280;60508;42.622;25.416;2023-04-25T01:18:50;95994.41;;;13.54;80.13
45078;BME280;60508;42.622;25.416;2023-04-25T01:21:17;95990.63;;;13.55;81.17
45078;BME280;60508;42.622;25.416;2023-04-25T01:23:44;95993.31;;;13.55;82.64
45078;BME280;60508;42.622;25.416;2023-04-25T01:26:11;95994.50;;;13.44;83.74
45078;BME280;60508;42.622;25.416;2023-04-25T01:28:39;95987.97;;;13.50;84.00
45078;BME280;60508;42.622;25.416;2023-04-25T01:31:11;95987.50;;;13.72;83.37
45078;BME280;60508;42.622;25.416;2023-04-25T01:33:37;95980.94;;;13.83;82.75
45078;BME280;60508;42.622;25.416;2023-04-25T01:36:04;95973.31;;;13.91;82.88
45078;BME280;60508;42.622;25.416;2023-04-25T01:38:31;95969.19;;;13.98;82.60
45078;BME280;60508;42.622;25.416;2023-04-25T01:40:58;95962.47;;;13.96;82.64
45078;BME280;60508;42.622;25.416;2023-04-25T01:43:24;95965.91;;;14.01;82.52
45078;BME280;60508;42.622;25.416;2023-04-25T01:45:52;95965.97;;;13.96;82.63
45078;BME280;60508;42.622;25.416;2023-04-25T01:48:18;95968.66;;;13.96;82.25
45078;BME280;60508;42.622;25.416;2023-04-25T01:50:46;95962.53;;;13.91;82.46
45078;BME280;60508;42.622;25.416;2023-04-25T01:53:12;95954.44;;;13.85;82.30
45078;BME280;60508;42.622;25.416;2023-04-25T01:55:39;95953.84;;;13.94;82.15
45078;BME280;60508;42.622;25.416;2023-04-25T01:58:09;95966.19;;;14.00;81.53
45078;BME280;60508;42.622;25.416;2023-04-25T02:00:57;95962.69;;;13.70;83.08
45078;BME280;60508;42.622;25.416;2023-04-25T02:03:27;95960.66;;;13.51;84.03
45078;BME280;60508;42.622;25.416;2023-04-25T02:05:54;95961.59;;;13.37;84.96
45078;BME280;60508;42.622;25.416;2023-04-25T02:08:22;95958.66;;;13.33;85.33
45078;BME280;60508;42.622;25.416;2023-04-25T02:10:48;95955.44;;;13.31;85.06
45078;BME280;60508;42.622;25.416;2023-04-25T02:13:18;95947.19;;;13.12;85.72
45078;BME280;60508;42.622;25.416;2023-04-25T02:15:50;95956.63;;;13.14;85.96
45078;BME280;60508;42.622;25.416;2023-04-25T02:18:18;95962.69;;;13.30;86.09
45078;BME280;60508;42.622;25.416;2023-04-25T02:20:45;95953.97;;;13.49;85.03
45078;BME280;60508;42.622;25.416;2023-04-25T02:23:14;95966.84;;;13.57;84.35
45078;BME280;60508;42.622;25.416;2023-04-25T02:25:41;95970.06;;;13.59;84.22
45078;BME280;60508;42.622;25.416;2023-04-25T02:28:08;95973.25;;;13.66;83.32
45078;BME280;60508;42.622;25.416;2023-04-25T02:30:35;95981.78;;;13.44;84.67
45078;BME280;60508;42.622;25.416;2023-04-25T02:33:04;95990.03;;;13.19;85.35
45078;BME280;60508;42.622;25.416;2023-04-25T02:35:31;95972.41;;;13.37;84.37
45078;BME280;60508;42.622;25.416;2023-04-25T02:37:57;95987.38;;;13.53;84.00
45078;BME280;60508;42.622;25.416;2023-04-25T02:40:23;95985.41;;;13.64;83.72
45078;BME280;60508;42.622;25.416;2023-04-25T02:42:48;95967.06;;;13.26;84.76
45078;BME280;60508;42.622;25.416;2023-04-25T02:45:14;95971.31;;;13.38;84.13
45078;BME280;60508;42.622;25.416;2023-04-25T02:47:40;95970.91;;;13.60;82.71
45078;BME280;60508;42.622;25.416;2023-04-25T02:50:08;95979.66;;;13.41;83.02
45078;BME280;60508;42.622;25.416;2023-04-25T02:52:35;95969.88;;;13.50;83.09
45078;BME280;60508;42.622;25.416;2023-04-25T02:55:13;95973.88;;;13.58;82.89
45078;BME280;60508;42.622;25.416;2023-04-25T02:57:40;95956.84;;;13.58;82.33
45078;BME280;60508;42.622;25.416;2023-04-25T03:00:08;95962.38;;;13.42;82.45
45078;BME280;60508;42.622;25.416;2023-04-25T03:02:34;95966.06;;;13.57;82.17
45078;BME280;60508;42.622;25.416;2023-04-25T03:05:00;95973.81;;;13.63;81.77
45078;BME280;60508;42.622;25.416;2023-04-25T03:07:27;95985.56;;;13.43;82.73
45078;BME280;60508;42.622;25.416;2023-04-25T03:09:53;95983.19;;;13.37;83.54
45078;BME280;60508;42.622;25.416;2023-04-25T03:12:19;95956.91;;;13.08;83.86
45078;BME280;60508;42.622;25.416;2023-04-25T03:14:45;95976.34;;;13.10;84.57
45078;BME280;60508;42.622;25.416;2023-04-25T03:17:11;95994.25;;;12.90;85.92
45078;BME280;60508;42.622;25.416;2023-04-25T03:19:37;95987.56;;;12.77;86.92
45078;BME280;60508;42.622;25.416;2023-04-25T03:22:02;95983.03;;;12.63;88.31
45078;BME280;60508;42.622;25.416;2023-04-25T03:24:28;95990.53;;;12.71;87.93
45078;BME280;60508;42.622;25.416;2023-04-25T03:26:54;95982.16;;;12.72;88.58
45078;BME280;60508;42.622;25.416;2023-04-25T03:29:20;95964.59;;;12.85;87.27
45078;BME280;60508;42.622;25.416;2023-04-25T03:31:51;95989.88;;;12.94;86.57
45078;BME280;60508;42.622;25.416;2023-04-25T03:34:18;95990.47;;;12.86;86.94
45078;BME280;60508;42.622;25.416;2023-04-25T03:36:44;95982.75;;;13.14;86.32
45078;BME280;60508;42.622;25.416;2023-04-25T03:39:11;95975.44;;;13.25;84.81
45078;BME280;60508;42.622;25.416;2023-04-25T03:41:39;95964.59;;;13.30;84.77
45078;BME280;60508;42.622;25.416;2023-04-25T03:44:12;95965.09;;;13.42;84.25
45078;BME280;60508;42.622;25.416;2023-04-25T03:46:39;95975.06;;;13.42;84.19
45078;BME280;60508;42.622;25.416;2023-04-25T03:49:05;95976.38;;;13.44;83.09
45078;BME280;60508;42.622;25.416;2023-04-25T03:52:01;95970.03;;;13.25;84.15
45078;BME280;60508;42.622;25.416;2023-04-25T03:54:33;95979.16;;;13.29;83.65
45078;BME280;60508;42.622;25.416;2023-04-25T03:57:04;95979.78;;;13.15;84.29
45078;BME280;60508;42.622;25.416;2023-04-25T03:59:33;95981.41;;;13.17;84.37
45078;BME280;60508;42.622;25.416;2023-04-25T04:01:59;95970.94;;;13.05;84.25
45078;BME280;60508;42.622;25.416;2023-04-25T04:04:25;95974.72;;;13.09;85.46
45078;BME280;60508;42.622;25.416;2023-04-25T04:06:51;95971.66;;;13.21;85.23
45078;BME280;60508;42.622;25.416;2023-04-25T04:09:25;95964.59;;;12.85;86.34
45078;BME280;60508;42.622;25.416;2023-04-25T04:11:52;95962.75;;;12.75;86.70
45078;BME280;60508;42.622;25.416;2023-04-25T04:14:18;95978.97;;;12.65;87.11
45078;BME280;60508;42.622;25.416;2023-04-25T04:16:46;95983.31;;;12.56;88.19
45078;BME280;60508;42.622;25.416;2023-04-25T04:19:12;95987.03;;;12.70;87.89
45078;BME280;60508;42.622;25.416;2023-04-25T04:25:05;95989.09;;;12.94;87.29
45078;BME280;60508;42.622;25.416;2023-04-25T04:27:52;95975.09;;;12.87;86.87
45078;BME280;60508;42.622;25.416;2023-04-25T04:30:33;95974.47;;;13.05;86.68
45078;BME280;60508;42.622;25.416;2023-04-25T04:33:04;95969.38;;;12.99;84.83
45078;BME280;60508;42.622;25.416;2023-04-25T04:35:30;95985.53;;;13.04;85.00
45078;BME280;60508;42.622;25.416;2023-04-25T04:37:56;95969.63;;;13.02;86.12
45078;BME280;60508;42.622;25.416;2023-04-25T04:40:27;95976.06;;;13.11;85.40
45078;BME280;60508;42.622;25.416;2023-04-25T04:43:22;95973.91;;;13.08;85.60
45078;BME280;60508;42.622;25.416;2023-04-25T04:46:01;95971.22;;;13.48;84.31
45078;BME280;60508;42.622;25.416;2023-04-25T04:48:50;95972.69;;;13.69;83.29
45078;BME280;60508;42.622;25.416;2023-04-25T04:51:48;95970.13;;;13.83;81.80
45078;BME280;60508;42.622;25.416;2023-04-25T04:54:50;95972.22;;;13.92;81.87
45078;BME280;60508;42.622;25.416;2023-04-25T04:57:36;95972.97;;;13.97;82.15
45078;BME280;60508;42.622;25.416;2023-04-25T05:00:22;95971.38;;;13.96;81.72
45078;BME280;60508;42.622;25.416;2023-04-25T05:02:49;95977.00;;;14.00;82.59
45078;BME280;60508;42.622;25.416;2023-04-25T05:05:33;95980.19;;;14.07;82.09
45078;BME280;60508;42.622;25.416;2023-04-25T05:08:23;95972.66;;;14.04;81.82
45078;BME280;60508;42.622;25.416;2023-04-25T05:11:12;95978.47;;;14.16;81.41
45078;BME280;60508;42.622;25.416;2023-04-25T05:13:52;95973.97;;;14.31;80.10
45078;BME280;60508;42.622;25.416;2023-04-25T05:16:39;95977.38;;;14.41;79.99
45078;BME280;60508;42.622;25.416;2023-04-25T05:19:26;95975.47;;;14.42;79.57
45078;BME280;60508;42.622;25.416;2023-04-25T05:22:14;95977.66;;;14.40;79.58
45078;BME280;60508;42.622;25.416;2023-04-25T05:24:54;95970.25;;;14.51;79.75
45078;BME280;60508;42.622;25.416;2023-04-25T05:27:48;95971.19;;;14.65;78.26
45078;BME280;60508;42.622;25.416;2023-04-25T05:30:39;95969.50;;;14.69;78.34
45078;BME280;60508;42.622;25.416;2023-04-25T05:33:18;95969.56;;;14.64;76.96
45078;BME280;60508;42.622;25.416;2023-04-25T05:35:45;95968.50;;;14.65;77.93
45078;BME280;60508;42.622;25.416;2023-04-25T05:38:11;95963.53;;;14.72;78.34
45078;BME280;60508;42.622;25.416;2023-04-25T05:40:56;95964.22;;;14.83;77.70
45078;BME280;60508;42.622;25.416;2023-04-25T05:43:44;95963.59;;;14.67;77.70
45078;BME280;60508;42.622;25.416;2023-04-25T05:46:39;95968.25;;;14.13;80.03
45078;BME280;60508;42.622;25.416;2023-04-25T05:49:23;95969.44;;;14.02;81.59
45078;BME280;60508;42.622;25.416;2023-04-25T05:52:03;95959.09;;;14.09;81.10
45078;BME280;60508;42.622;25.416;2023-04-25T05:55:00;95960.00;;;14.23;81.17
45078;BME280;60508;42.622;25.416;2023-04-25T05:57:27;95953.97;;;14.32;80.47
45078;BME280;60508;42.622;25.416;2023-04-25T05:59:55;95958.81;;;14.35;80.57
45078;BME280;60508;42.622;25.416;2023-04-25T06:02:27;95965.38;;;14.77;80.80
45078;BME280;60508;42.622;25.416;2023-04-25T06:04:53;95956.41;;;15.20;78.45
45078;BME280;60508;42.622;25.416;2023-04-25T06:07:19;95956.00;;;15.45;77.00
45078;BME280;60508;42.622;25.416;2023-04-25T06:09:46;95964.19;;;15.59;75.47
45078;BME280;60508;42.622;25.416;2023-04-25T06:12:12;95975.06;;;15.73;75.04
45078;BME280;60508;42.622;25.416;2023-04-25T06:14:38;95963.59;;;15.81;74.68
45078;BME280;60508;42.622;25.416;2023-04-25T06:17:05;95957.72;;;15.74;73.55
45078;BME280;60508;42.622;25.416;2023-04-25T06:19:35;95968.22;;;15.62;74.58
45078;BME280;60508;42.622;25.416;2023-04-25T06:22:02;95973.09;;;15.60;73.98
45078;BME280;60508;42.622;25.416;2023-04-25T06:24:30;95978.97;;;15.67;74.21
45078;BME280;60508;42.622;25.416;2023-04-25T06:26:56;95974.34;;;15.67;73.65
45078;BME280;60508;42.622;25.416;2023-04-25T06:29:22;95982.66;;;15.71;73.50
45078;BME280;60508;42.622;25.416;2023-04-25T06:31:48;95981.59;;;15.72;73.52
45078;BME280;60508;42.622;25.416;2023-04-25T06:34:15;95985.56;;;15.80;73.25
45078;BME280;60508;42.622;25.416;2023-04-25T06:36:41;95983.53;;;15.33;74.43
45078;BME280;60508;42.622;25.416;2023-04-25T06:39:10;95978.13;;;15.33;73.69
45078;BME280;60508;42.622;25.416;2023-04-25T06:41:36;95983.06;;;15.45;74.13
45078;BME280;60508;42.622;25.416;2023-04-25T06:44:05;95978.22;;;15.61;73.98
45078;BME280;60508;42.622;25.416;2023-04-25T06:46:35;95989.91;;;15.76;71.06
45078;BME280;60508;42.622;25.416;2023-04-25T06:49:04;95967.66;;;15.27;72.41
45078;BME280;60508;42.622;25.416;2023-04-25T06:51:30;95973.69;;;15.57;71.44
45078;BME280;60508;42.622;25.416;2023-04-25T06:53:57;95983.31;;;16.01;71.34
45078;BME280;60508;42.622;25.416;2023-04-25T06:56:29;95992.78;;;16.31;70.04
45078;BME280;60508;42.622;25.416;2023-04-25T06:59:03;95981.63;;;16.19;68.28
45078;BME280;60508;42.622;25.416;2023-04-25T07:01:39;95974.91;;;16.30;69.31
45078;BME280;60508;42.622;25.416;2023-04-25T07:04:14;95979.75;;;16.47;68.25
45078;BME280;60508;42.622;25.416;2023-04-25T07:06:45;95987.47;;;16.40;68.58
45078;BME280;60508;42.622;25.416;2023-04-25T07:09:16;95976.22;;;16.47;68.72
45078;BME280;60508;42.622;25.416;2023-04-25T07:11:45;95975.53;;;16.55;67.68
45078;BME280;60508;42.622;25.416;2023-04-25T07:14:12;95975.75;;;16.58;67.96
45078;BME280;60508;42.622;25.416;2023-04-25T07:16:40;95980.63;;;16.56;68.21
45078;BME280;60508;42.622;25.416;2023-04-25T07:19:06;95986.88;;;16.57;66.80
45078;BME280;60508;42.622;25.416;2023-04-25T07:21:32;95981.34;;;16.34;67.57
45078;BME280;60508;42.622;25.416;2023-04-25T07:24:01;95983.53;;;16.18;67.87
45078;BME280;60508;42.622;25.416;2023-04-25T07:26:33;95974.72;;;16.27;68.97
45078;BME280;60508;42.622;25.416;2023-04-25T07:29:25;95970.50;;;16.34;69.24
45078;BME280;60508;42.622;25.416;2023-04-25T07:31:51;95964.38;;;16.42;69.63
45078;BME280;60508;42.622;25.416;2023-04-25T07:34:19;95965.28;;;16.38;68.00
45078;BME280;60508;42.622;25.416;2023-04-25T07:36:46;95964.97;;;16.25;68.79
45078;BME280;60508;42.622;25.416;2023-04-25T07:39:12;95956.34;;;16.37;69.33
45078;BME280;60508;42.622;25.416;2023-04-25T07:41:38;95957.56;;;16.59;69.82
45078;BME280;60508;42.622;25.416;2023-04-25T07:44:06;95956.53;;;16.69;69.10
45078;BME280;60508;42.622;25.416;2023-04-25T07:46:34;95946.59;;;16.64;69.67
45078;BME280;60508;42.622;25.416;2023-04-25T07:49:00;95941.06;;;16.69;69.06
45078;BME280;60508;42.622;25.416;2023-04-25T07:51:26;95940.06;;;16.93;66.53
45078;BME280;60508;42.622;25.416;2023-04-25T07:53:56;95936.47;;;17.20;67.13
45078;BME280;60508;42.622;25.416;2023-04-25T07:56:23;95934.63;;;16.93;68.48
45078;BME280;60508;42.622;25.416;2023-04-25T07:58:51;95941.47;;;16.49;68.44
45078;BME280;60508;42.622;25.416;2023-04-25T08:01:20;95936.88;;;16.21;69.98
45078;BME280;60508;42.622;25.416;2023-04-25T08:03:57;95934.84;;;16.13;69.75
45078;BME280;60508;42.622;25.416;2023-04-25T08:06:32;95943.91;;;16.36;69.12
45078;BME280;60508;42.622;25.416;2023-04-25T08:09:08;95929.34;;;16.18;70.73
45078;BME280;60508;42.622;25.416;2023-04-25T08:11:39;95934.72;;;16.04;70.44
45078;BME280;60508;42.622;25.416;2023-04-25T08:14:07;95937.84;;;15.98;69.19
45078;BME280;60508;42.622;25.416;2023-04-25T08:16:34;95927.41;;;16.05;68.82
45078;BME280;60508;42.622;25.416;2023-04-25T08:19:02;95939.75;;;16.11;67.21
45078;BME280;60508;42.622;25.416;2023-04-25T08:21:29;95937.88;;;16.39;66.74
45078;BME280;60508;42.622;25.416;2023-04-25T08:23:58;95921.78;;;16.29;66.77
45078;BME280;60508;42.622;25.416;2023-04-25T08:26:28;95935.66;;;16.55;66.14
45078;BME280;60508;42.622;25.416;2023-04-25T08:28:55;95936.28;;;16.52;64.92
45078;BME280;60508;42.622;25.416;2023-04-25T08:31:22;95932.13;;;16.55;65.08
45078;BME280;60508;42.622;25.416;2023-04-25T08:33:54;95934.28;;;17.08;65.50
45078;BME280;60508;42.622;25.416;2023-04-25T08:36:28;95930.38;;;17.37;63.85
45078;BME280;60508;42.622;25.416;2023-04-25T08:38:54;95931.59;;;17.53;61.38
45078;BME280;60508;42.622;25.416;2023-04-25T08:41:21;95930.47;;;17.09;61.56
45078;BME280;60508;42.622;25.416;2023-04-25T08:43:49;95928.72;;;16.63;63.14
45078;BME280;60508;42.622;25.416;2023-04-25T08:46:17;95918.84;;;16.95;62.98
45078;BME280;60508;42.622;25.416;2023-04-25T08:49:12;95928.03;;;17.90;59.00
45078;BME280;60508;42.622;25.416;2023-04-25T08:51:44;95919.69;;;18.57;56.25
45078;BME280;60508;42.622;25.416;2023-04-25T08:54:14;95910.47;;;18.36;56.66
45078;BME280;60508;42.622;25.416;2023-04-25T08:56:44;95913.88;;;18.41;56.36
45078;BME280;60508;42.622;25.416;2023-04-25T08:59:12;95911.63;;;19.10;54.96
45078;BME280;60508;42.622;25.416;2023-04-25T09:01:40;95918.25;;;21.07;49.29
45078;BME280;60508;42.622;25.416;2023-04-25T09:04:06;95904.50;;;22.61;44.54
45078;BME280;60508;42.622;25.416;2023-04-25T09:06:34;95915.31;;;23.76;42.78
45078;BME280;60508;42.622;25.416;2023-04-25T09:09:05;95918.53;;;22.72;43.25
45078;BME280;60508;42.622;25.416;2023-04-25T09:11:32;95922.75;;;21.87;45.33
45078;BME280;60508;42.622;25.416;2023-04-25T09:14:11;95927.38;;;20.90;46.70
45078;BME280;60508;42.622;25.416;2023-04-25T09:17:05;95919.78;;;20.27;49.23
45078;BME280;60508;42.622;25.416;2023-04-25T09:19:54;95924.25;;;19.93;51.42
45078;BME280;60508;42.622;25.416;2023-04-25T09:22:27;95924.25;;;19.58;50.91
45078;BME280;60508;42.622;25.416;2023-04-25T09:24:53;95911.47;;;19.41;52.01
45078;BME280;60508;42.622;25.416;2023-04-25T09:27:22;95910.66;;;19.32;53.13
45078;BME280;60508;42.622;25.416;2023-04-25T09:30:15;95907.75;;;19.55;52.79
45078;BME280;60508;42.622;25.416;2023-04-25T09:33:05;95901.84;;;19.44;52.81
45078;BME280;60508;42.622;25.416;2023-04-25T09:35:50;95905.84;;;19.46;52.46
45078;BME280;60508;42.622;25.416;2023-04-25T09:38:43;95900.84;;;19.57;52.80
45078;BME280;60508;42.622;25.416;2023-04-25T09:41:22;95905.34;;;19.70;52.42
45078;BME280;60508;42.622;25.416;2023-04-25T09:43:49;95895.56;;;19.52;52.03
45078;BME280;60508;42.622;25.416;2023-04-25T09:46:16;95885.00;;;19.50;51.87
45078;BME280;60508;42.622;25.416;2023-04-25T09:48:52;95889.81;;;19.45;52.65
45078;BME280;60508;42.622;25.416;2023-04-25T09:51:28;95892.53;;;19.36;51.62
45078;BME280;60508;42.622;25.416;2023-04-25T09:53:55;95897.16;;;19.62;52.76
45078;BME280;60508;42.622;25.416;2023-04-25T09:56:35;95896.50;;;19.91;52.27
45078;BME280;60508;42.622;25.416;2023-04-25T09:59:05;95892.72;;;20.13;52.12
45078;BME280;60508;42.622;25.416;2023-04-25T10:01:34;95876.81;;;19.77;51.72
45078;BME280;60508;42.622;25.416;2023-04-25T10:04:20;95891.44;;;19.20;52.22
45078;BME280;60508;42.622;25.416;2023-04-25T10:06:56;95886.00;;;19.11;53.61
45078;BME280;60508;42.622;25.416;2023-04-25T10:09:25;95887.72;;;19.77;53.97
45078;BME280;60508;42.622;25.416;2023-04-25T10:11:52;95877.50;;;20.42;52.54
45078;BME280;60508;42.622;25.416;2023-04-25T10:14:19;95871.94;;;20.89;52.03
45078;BME280;60508;42.622;25.416;2023-04-25T10:16:45;95861.69;;;21.49;49.75
45078;BME280;60508;42.622;25.416;2023-04-25T10:19:13;95850.16;;;21.89;50.23
45078;BME280;60508;42.622;25.416;2023-04-25T10:21:48;95845.84;;;21.88;45.94
45078;BME280;60508;42.622;25.416;2023-04-25T10:24:16;95829.53;;;21.92;45.38
45078;BME280;60508;42.622;25.416;2023-04-25T10:26:42;95823.09;;;21.51;42.52
45078;BME280;60508;42.622;25.416;2023-04-25T10:29:09;95815.41;;;21.78;43.99
45078;BME280;60508;42.622;25.416;2023-04-25T10:31:45;95816.44;;;21.98;42.87
45078;BME280;60508;42.622;25.416;2023-04-25T10:34:13;95802.41;;;21.99;43.12
45078;BME280;60508;42.622;25.416;2023-04-25T10:36:40;95817.78;;;21.79;42.53
45078;BME280;60508;42.622;25.416;2023-04-25T10:39:06;95819.56;;;20.45;46.16
45078;BME280;60508;42.622;25.416;2023-04-25T10:41:48;95802.91;;;20.68;47.51
45078;BME280;60508;42.622;25.416;2023-04-25T10:44:18;95782.59;;;20.27;47.16
45078;BME280;60508;42.622;25.416;2023-04-25T10:46:44;95802.28;;;20.83;45.37
45078;BME280;60508;42.622;25.416;2023-04-25T10:49:28;95793.41;;;21.07;45.38
45078;BME280;60508;42.622;25.416;2023-04-25T10:52:12;95795.56;;;21.56;42.18
45078;BME280;60508;42.622;25.416;2023-04-25T10:54:52;95798.09;;;21.86;42.65
45078;BME280;60508;42.622;25.416;2023-04-25T10:57:40;95786.16;;;22.40;43.00
45078;BME280;60508;42.622;25.416;2023-04-25T11:02:45;95799.97;;;22.72;41.74
45078;BME280;60508;42.622;25.416;2023-04-25T11:05:22;95794.31;;;20.78;47.29
45078;BME280;60508;42.622;25.416;2023-04-25T11:07:51;95791.56;;;22.65;43.43
45078;BME280;60508;42.622;25.416;2023-04-25T11:10:18;95790.63;;;23.13;42.93
45078;BME280;60508;42.622;25.416;2023-04-25T11:12:45;95799.97;;;24.33;40.77
45078;BME280;60508;42.622;25.416;2023-04-25T11:15:12;95783.47;;;25.43;37.74
45078;BME280;60508;42.622;25.416;2023-04-25T11:17:39;95782.81;;;25.30;37.73
45078;BME280;60508;42.622;25.416;2023-04-25T11:20:07;95760.94;;;24.59;38.41
45078;BME280;60508;42.622;25.416;2023-04-25T11:22:38;95773.00;;;23.87;40.70
45078;BME280;60508;42.622;25.416;2023-04-25T11:25:10;95788.59;;;23.10;39.39
45078;BME280;60508;42.622;25.416;2023-04-25T11:27:52;95782.72;;;22.43;41.95
45078;BME280;60508;42.622;25.416;2023-04-25T11:30:19;95774.16;;;22.20;42.93
45078;BME280;60508;42.622;25.416;2023-04-25T11:32:46;95767.69;;;22.00;42.38
45078;BME280;60508;42.622;25.416;2023-04-25T11:35:12;95765.72;;;21.63;43.45
45078;BME280;60508;42.622;25.416;2023-04-25T11:37:40;95753.03;;;21.46;44.02
45078;BME280;60508;42.622;25.416;2023-04-25T11:40:07;95751.38;;;21.66;43.42
45078;BME280;60508;42.622;25.416;2023-04-25T11:42:34;95761.53;;;21.91;43.19
45078;BME280;60508;42.622;25.416;2023-04-25T11:45:01;95760.81;;;22.18;41.95
45078;BME280;60508;42.622;25.416;2023-04-25T11:47:30;95748.88;;;22.35;42.09
45078;BME280;60508;42.622;25.416;2023-04-25T11:50:02;95749.56;;;24.41;39.90
45078;BME280;60508;42.622;25.416;2023-04-25T11:52:38;95742.91;;;27.27;34.11
45078;BME280;60508;42.622;25.416;2023-04-25T11:55:12;95738.34;;;28.31;31.73
45078;BME280;60508;42.622;25.416;2023-04-25T11:57:39;95731.00;;;29.77;30.07
45078;BME280;60508;42.622;25.416;2023-04-25T12:00:14;95726.63;;;30.59;28.52
45078;BME280;60508;42.622;25.416;2023-04-25T12:02:45;95744.03;;;30.63;29.52
45078;BME280;60508;42.622;25.416;2023-04-25T12:05:13;95735.41;;;29.93;30.39
45078;BME280;60508;42.622;25.416;2023-04-25T12:07:39;95726.72;;;27.59;34.44
45078;BME280;60508;42.622;25.416;2023-04-25T12:10:11;95702.44;;;26.97;35.93
45078;BME280;60508;42.622;25.416;2023-04-25T12:12:41;95723.72;;;27.34;34.55
45078;BME280;60508;42.622;25.416;2023-04-25T12:15:15;95742.88;;;28.02;33.71
45078;BME280;60508;42.622;25.416;2023-04-25T12:17:47;95730.38;;;27.74;34.44
45078;BME280;60508;42.622;25.416;2023-04-25T12:20:19;95721.34;;;25.42;37.93
45078;BME280;60508;42.622;25.416;2023-04-25T12:22:47;95720.03;;;24.54;39.78
45078;BME280;60508;42.622;25.416;2023-04-25T12:25:34;95712.53;;;23.20;42.72
45078;BME280;60508;42.622;25.416;2023-04-25T12:28:19;95705.44;;;22.62;42.83
45078;BME280;60508;42.622;25.416;2023-04-25T12:31:01;95697.78;;;21.41;45.11
45078;BME280;60508;42.622;25.416;2023-04-25T12:33:36;95696.94;;;20.70;47.14
45078;BME280;60508;42.622;25.416;2023-04-25T12:36:04;95690.72;;;20.39;48.43
45078;BME280;60508;42.622;25.416;2023-04-25T12:38:41;95684.56;;;20.30;48.72
45078;BME280;60508;42.622;25.416;2023-04-25T12:41:08;95688.00;;;20.18;48.76
45078;BME280;60508;42.622;25.416;2023-04-25T12:43:34;95686.19;;;19.80;51.51
45078;BME280;60508;42.622;25.416;2023-04-25T12:46:00;95677.94;;;20.52;50.02
45078;BME280;60508;42.622;25.416;2023-04-25T12:48:27;95679.63;;;21.69;48.31
45078;BME280;60508;42.622;25.416;2023-04-25T12:50:53;95667.81;;;21.20;50.03
45078;BME280;60508;42.622;25.416;2023-04-25T12:53:20;95665.59;;;22.49;47.87
45078;BME280;60508;42.622;25.416;2023-04-25T12:55:48;95694.41;;;23.15;45.78
45078;BME280;60508;42.622;25.416;2023-04-25T12:58:15;95675.22;;;25.55;40.37
45078;BME280;60508;42.622;25.416;2023-04-25T13:00:42;95684.66;;;26.94;36.95
45078;BME280;60508;42.622;25.416;2023-04-25T13:03:08;95680.69;;;26.28;37.56
45078;BME280;60508;42.622;25.416;2023-04-25T13:05:35;95686.38;;;25.39;38.98
45078;BME280;60508;42.622;25.416;2023-04-25T13:08:02;95683.13;;;24.71;39.02
45078;BME280;60508;42.622;25.416;2023-04-25T13:10:29;95692.13;;;23.97;39.49
45078;BME280;60508;42.622;25.416;2023-04-25T13:12:55;95703.94;;;22.77;41.85
45078;BME280;60508;42.622;25.416;2023-04-25T13:15:21;95694.91;;;22.23;43.56